KCSM/CSM METAR and TAF weather

Enter ICAO airport designator
Station Type Date Time Source
KCSM METAR 2020/01/20 12:53 UTC NOAA

KCSM 201253Z AUTO 35004KT 10SM CLR M06/M07 A3054 RMK AO2 SLP359 I1000 T10611067


Station Type Date Time Source
KCSM Decoded METAR 2020/01/20 12:53 UTC NOAA

CLINTON-SHERMAN AIRPORT, OK, United States (KCSM) 35-21E 99-12W 588M
Jan 20, 2020 - 07:53 AM EST / 2020.01.20 1253 UTC
Wind: from the N (350 degrees) at 5 MPH (4 KT):0
Visibility: 10 mile(s):0
Sky conditions: clear
Temperature: 21.0 F (-6.1 C)
Windchill: 14 F (-10 C):1
Dew Point: 19.9 F (-6.7 C)
Relative Humidity: 95%
Pressure (altimeter): 30.54 in. Hg (1034 hPa)
ob: KCSM 201253Z AUTO 35004KT 10SM CLR M06/M07 A3054 RMK AO2 SLP359 I1000 T10611067
cycle: 13

Station Type Date Time Source
KCSM TAF 2020/01/20 12:24 UTC NOAA

TAF KCSM 201121Z 2012/2112 VRB05KT P6SM SKC
FM201600 22008KT P6SM SKC
FM210100 16008KT P6SM FEW250

Example: see airport list